Time;durP1;ratioP1;P1;durP2;ratioP2;P2;SDS_P1;SDS_P2;PMS_P1;PMS_P2;Temp;Humidity;BMP_temperature;BMP_pressure;BME280_temperature;BME280_humidity;BME280_pressure;Samples;Min_cycle;Max_cycle;Signal;HPM_P1;HPM_P2
2022/10/19 00:01:42;;;;;;;0.10;0.10;;;11.60;99.90;;;;;;4913300;29;20055;-77
2022/10/19 00:04:08;;;;;;;0.10;0.10;;;11.60;99.90;;;;;;4894454;29;20044;-77
2022/10/19 00:06:35;;;;;;;0.10;0.10;;;11.50;99.90;;;;;;4916179;29;20399;-76
2022/10/19 00:09:05;;;;;;;0.10;0.10;;;11.60;99.90;;;;;;4917600;29;20645;-76
2022/10/19 00:11:32;;;;;;;0.20;0.20;;;11.70;99.90;;;;;;4916143;29;20036;-77
2022/10/19 00:13:58;;;;;;;0.10;0.10;;;11.60;99.90;;;;;;4913797;29;20040;-77
2022/10/19 00:16:27;;;;;;;0.20;0.20;;;11.70;99.90;;;;;;4912758;29;20496;-76
2022/10/19 00:18:57;;;;;;;0.20;0.20;;;11.70;99.90;;;;;;4908777;29;20096;-76
2022/10/19 00:21:22;;;;;;;0.15;0.15;;;11.80;99.90;;;;;;4913903;29;20128;-76
2022/10/19 00:23:48;;;;;;;0.13;0.13;;;11.80;99.90;;;;;;4897144;29;20131;-76
2022/10/19 00:26:14;;;;;;;0.10;0.10;;;11.70;99.90;;;;;;4911175;29;20424;-77
2022/10/19 00:28:41;;;;;;;0.10;0.10;;;11.90;99.90;;;;;;4918887;29;20051;-77
2022/10/19 00:31:09;;;;;;;0.10;0.10;;;11.90;99.90;;;;;;4913771;29;20050;-77
2022/10/19 00:33:35;;;;;;;0.10;0.10;;;11.80;99.90;;;;;;4912662;29;20534;-77
2022/10/19 00:36:02;;;;;;;0.20;0.20;;;11.70;99.90;;;;;;4912754;29;20075;-76
2022/10/19 00:38:27;;;;;;;0.10;0.10;;;11.70;99.90;;;;;;4912859;29;20096;-77
2022/10/19 00:40:53;;;;;;;0.20;0.20;;;11.70;99.90;;;;;;4912772;29;20040;-76
2022/10/19 00:43:25;;;;;;;0.10;0.10;;;11.70;99.90;;;;;;4896102;29;20408;-77
2022/10/19 00:45:51;;;;;;;0.10;0.10;;;11.80;99.90;;;;;;4912690;29;20044;-77
2022/10/19 00:48:24;;;;;;;0.20;0.20;;;11.80;99.90;;;;;;4913179;29;20120;-76
2022/10/19 00:50:52;;;;;;;0.17;0.17;;;11.90;99.90;;;;;;4912472;29;21540;-76
2022/10/19 00:53:18;;;;;;;0.20;0.20;;;11.90;99.90;;;;;;4913591;29;20087;-77
2022/10/19 00:55:44;;;;;;;0.20;0.20;;;11.80;99.90;;;;;;4910380;29;20079;-77
2022/10/19 00:58:10;;;;;;;0.20;0.20;;;11.80;99.90;;;;;;4912507;29;20583;-76
2022/10/19 01:00:36;;;;;;;0.10;0.10;;;11.90;99.90;;;;;;4912549;29;20047;-77
2022/10/19 01:03:03;;;;;;;0.10;0.10;;;11.90;99.90;;;;;;4912375;29;20312;-77
2022/10/19 01:05:29;;;;;;;0.10;0.10;;;11.90;99.90;;;;;;4912120;29;20403;-77
2022/10/19 01:07:56;;;;;;;0.10;0.10;;;11.90;99.90;;;;;;4895652;29;20543;-77
2022/10/19 01:10:39;;;;;;;0.10;0.10;;;12.00;99.90;;;;;;4911867;29;20064;-77
2022/10/19 01:13:14;;;;;;;0.10;0.10;;;11.90;99.90;;;;;;4916055;29;20040;-77
2022/10/19 01:15:49;;;;;;;0.20;0.20;;;11.90;99.90;;;;;;4912404;29;20055;-77
2022/10/19 01:18:19;;;;;;;0.10;0.10;;;11.90;99.90;;;;;;4911729;29;20060;-77
2022/10/19 01:21:25;;;;;;;0.10;0.10;;;12.10;99.90;;;;;;4895233;29;20544;-77
2022/10/19 01:24:28;;;;;;;0.17;0.17;;;12.10;99.90;;;;;;4835279;29;20118;-77
2022/10/19 01:27:02;;;;;;;0.20;0.20;;;11.90;99.90;;;;;;4836283;29;20046;-77
2022/10/19 01:29:53;;;;;;;0.20;0.20;;;11.90;99.90;;;;;;4891453;29;20056;-77
2022/10/19 01:32:28;;;;;;;0.20;0.20;;;11.90;99.90;;;;;;4894525;29;20107;-77
2022/10/19 01:35:11;;;;;;;0.10;0.10;;;11.90;99.90;;;;;;4913089;29;20296;-77
2022/10/19 01:37:39;;;;;;;0.17;0.17;;;11.90;99.90;;;;;;4905134;29;20107;-77
2022/10/19 01:40:10;;;;;;;0.10;0.10;;;11.90;99.90;;;;;;4912509;29;20067;-77
2022/10/19 01:42:57;;;;;;;0.10;0.10;;;11.90;99.90;;;;;;4911235;29;20048;-77
2022/10/19 01:45:46;;;;;;;0.10;0.10;;;11.90;99.90;;;;;;4909754;29;20063;-77
2022/10/19 01:48:23;;;;;;;0.20;0.20;;;11.90;99.90;;;;;;4897542;29;20058;-76
2022/10/19 01:50:51;;;;;;;0.20;0.20;;;11.90;99.90;;;;;;4892568;29;20056;-76
2022/10/19 01:53:19;;;;;;;0.20;0.20;;;11.90;99.90;;;;;;4893122;29;20062;-77
2022/10/19 01:55:48;;;;;;;0.10;0.10;;;12.10;99.90;;;;;;4892629;29;20088;-77
2022/10/19 01:58:19;;;;;;;0.10;0.10;;;11.90;99.90;;;;;;4876119;29;20052;-77
2022/10/19 02:00:47;;;;;;;0.10;0.10;;;11.90;99.90;;;;;;4891446;29;20086;-77
2022/10/19 02:03:14;;;;;;;0.10;0.10;;;11.90;99.90;;;;;;4867890;29;20097;-77
2022/10/19 02:05:41;;;;;;;0.10;0.10;;;11.80;99.90;;;;;;4870655;29;20092;-76
2022/10/19 02:08:19;;;;;;;0.10;0.10;;;11.90;99.90;;;;;;4892779;29;20412;-76
2022/10/19 02:10:46;;;;;;;0.10;0.10;;;11.90;99.90;;;;;;4888279;29;20087;-77
2022/10/19 02:13:15;;;;;;;0.10;0.10;;;11.90;99.90;;;;;;4876057;29;20108;-77
2022/10/19 02:15:44;;;;;;;0.15;0.15;;;11.90;99.90;;;;;;4875092;29;20056;-76
2022/10/19 02:18:13;;;;;;;0.10;0.10;;;11.90;99.90;;;;;;4892094;29;20544;-77
2022/10/19 02:20:39;;;;;;;0.20;0.20;;;11.80;99.90;;;;;;4874920;29;20057;-77
2022/10/19 02:23:06;;;;;;;0.20;0.20;;;11.90;99.90;;;;;;4893356;29;20388;-76
2022/10/19 02:25:32;;;;;;;0.15;0.15;;;12.00;99.90;;;;;;4892129;29;20056;-76
2022/10/19 02:27:59;;;;;;;0.20;0.20;;;11.90;99.90;;;;;;4878274;29;20437;-76
2022/10/19 02:30:25;;;;;;;0.10;0.10;;;11.90;99.90;;;;;;4878762;29;20144;-76
2022/10/19 02:32:51;;;;;;;0.10;0.10;;;11.90;99.90;;;;;;4897406;29;20298;-77
2022/10/19 02:35:17;;;;;;;0.10;0.10;;;11.90;99.90;;;;;;4895049;29;20041;-77
2022/10/19 02:37:43;;;;;;;0.10;0.10;;;11.90;99.90;;;;;;4896886;29;20119;-76
2022/10/19 02:40:10;;;;;;;0.10;0.10;;;11.90;99.90;;;;;;4896419;29;20123;-76
2022/10/19 02:42:47;;;;;;;0.10;0.10;;;11.90;99.90;;;;;;4895340;29;20048;-77
2022/10/19 02:45:21;;;;;;;0.10;0.10;;;11.90;99.90;;;;;;4896342;29;20075;-76
2022/10/19 02:48:10;;;;;;;0.13;0.13;;;11.90;99.90;;;;;;4890569;29;20492;-76
2022/10/19 02:50:35;;;;;;;0.20;0.20;;;11.90;99.90;;;;;;4896068;29;20103;-75
2022/10/19 02:53:01;;;;;;;0.20;0.20;;;11.80;99.90;;;;;;4915564;29;20059;-76
2022/10/19 02:55:28;;;;;;;0.20;0.20;;;11.80;99.90;;;;;;4914641;29;20040;-76
2022/10/19 02:57:54;;;;;;;0.20;0.20;;;11.80;99.90;;;;;;4914924;29;20086;-76
2022/10/19 03:00:19;;;;;;;0.10;0.10;;;11.70;99.90;;;;;;4915019;29;20084;-76
2022/10/19 03:02:45;;;;;;;0.10;0.10;;;11.70;99.90;;;;;;4896706;29;20055;-76
2022/10/19 03:05:11;;;;;;;0.10;0.10;;;11.70;99.90;;;;;;4914771;29;20164;-77
2022/10/19 03:07:36;;;;;;;0.10;0.10;;;11.60;99.90;;;;;;4915259;29;20329;-76
2022/10/19 03:10:02;;;;;;;0.10;0.10;;;11.60;99.90;;;;;;4896417;29;20048;-76
2022/10/19 03:12:28;;;;;;;0.20;0.20;;;11.50;99.90;;;;;;4915381;29;20044;-76
2022/10/19 03:14:53;;;;;;;0.10;0.10;;;11.50;99.90;;;;;;4914139;29;20044;-75
2022/10/19 03:17:19;;;;;;;0.20;0.20;;;11.60;99.90;;;;;;4914051;29;20063;-76
2022/10/19 03:19:45;;;;;;;0.15;0.15;;;11.50;99.90;;;;;;4914718;29;20047;-76
2022/10/19 03:22:13;;;;;;;0.15;0.15;;;11.50;99.90;;;;;;4914529;29;20036;-76
2022/10/19 03:24:39;;;;;;;0.10;0.10;;;11.60;99.90;;;;;;4913327;29;20051;-77
2022/10/19 03:27:04;;;;;;;0.20;0.20;;;11.50;99.90;;;;;;4896744;29;20066;-76
2022/10/19 03:29:30;;;;;;;0.10;0.10;;;11.40;99.90;;;;;;4912893;29;20075;-76
2022/10/19 03:31:56;;;;;;;0.10;0.10;;;11.40;99.90;;;;;;4915818;29;20087;-76
2022/10/19 03:34:21;;;;;;;0.20;0.20;;;11.40;99.90;;;;;;4917282;29;20451;-76
2022/10/19 03:36:47;;;;;;;0.20;0.20;;;11.40;99.90;;;;;;4914151;29;20036;-76
2022/10/19 03:39:14;;;;;;;0.10;0.10;;;11.40;99.90;;;;;;4907316;29;20523;-76
2022/10/19 03:41:41;;;;;;;0.20;0.20;;;11.40;99.90;;;;;;4914273;29;20036;-76
2022/10/19 03:44:07;;;;;;;0.10;0.10;;;11.40;99.90;;;;;;4896717;29;20482;-76
2022/10/19 03:46:34;;;;;;;0.17;0.17;;;11.40;99.90;;;;;;4911313;29;20463;-76
2022/10/19 03:49:00;;;;;;;0.10;0.10;;;11.40;99.90;;;;;;4895803;29;20045;-76
2022/10/19 03:51:28;;;;;;;0.10;0.10;;;11.30;99.90;;;;;;4877144;29;20057;-76
2022/10/19 03:53:56;;;;;;;0.10;0.10;;;11.30;99.90;;;;;;4895279;29;20082;-76
2022/10/19 03:56:24;;;;;;;0.10;0.10;;;11.30;99.90;;;;;;4895133;29;20040;-76
2022/10/19 03:58:52;;;;;;;0.10;0.10;;;11.30;99.90;;;;;;4880172;29;20485;-76
2022/10/19 04:01:22;;;;;;;0.20;0.20;;;11.40;99.90;;;;;;4894953;29;20045;-76
2022/10/19 04:04:03;;;;;;;0.20;0.20;;;11.30;99.90;;;;;;4878026;29;20071;-76
2022/10/19 04:06:34;;;;;;;0.17;0.17;;;11.30;99.90;;;;;;4894091;29;20059;-76
2022/10/19 04:09:00;;;;;;;0.20;0.20;;;11.30;99.90;;;;;;4877767;29;20048;-76
2022/10/19 04:11:28;;;;;;;0.17;0.17;;;11.30;99.90;;;;;;4895038;29;20053;-76
2022/10/19 04:13:55;;;;;;;0.10;0.10;;;11.30;99.90;;;;;;4894087;29;20055;-76
2022/10/19 04:16:22;;;;;;;0.20;0.20;;;11.30;99.90;;;;;;4894828;29;20036;-76
2022/10/19 04:18:48;;;;;;;0.10;0.10;;;11.30;99.90;;;;;;4894297;29;20051;-76
2022/10/19 04:21:24;;;;;;;0.10;0.10;;;11.30;99.90;;;;;;4894137;29;20135;-76
2022/10/19 04:23:56;;;;;;;0.10;0.10;;;11.30;99.90;;;;;;4894813;29;20055;-76
2022/10/19 04:26:22;;;;;;;0.20;0.20;;;11.30;99.90;;;;;;4876824;29;20315;-77
2022/10/19 04:28:48;;;;;;;0.10;0.10;;;11.30;99.90;;;;;;4876502;29;20052;-76
2022/10/19 04:31:13;;;;;;;0.20;0.20;;;11.40;99.90;;;;;;4895465;29;20508;-76
2022/10/19 04:33:40;;;;;;;0.10;0.10;;;11.30;99.90;;;;;;4893969;29;20135;-76
2022/10/19 04:36:09;;;;;;;0.20;0.20;;;11.20;99.90;;;;;;4892555;29;20040;-76
2022/10/19 04:38:35;;;;;;;0.10;0.10;;;11.20;99.90;;;;;;4893682;29;20123;-76
2022/10/19 04:41:06;;;;;;;0.20;0.20;;;11.20;99.90;;;;;;4874629;29;20049;-76
2022/10/19 04:43:31;;;;;;;0.20;0.20;;;11.20;99.90;;;;;;4881859;29;20509;-76
2022/10/19 04:46:04;;;;;;;0.10;0.10;;;11.20;99.90;;;;;;4876144;29;20548;-76
2022/10/19 04:48:30;;;;;;;0.13;0.13;;;11.20;99.90;;;;;;4892865;29;20052;-76
2022/10/19 04:50:56;;;;;;;0.10;0.10;;;11.20;99.90;;;;;;4893753;29;20063;-76
2022/10/19 04:53:22;;;;;;;0.10;0.10;;;11.20;99.90;;;;;;4893928;29;20123;-76
2022/10/19 04:55:48;;;;;;;0.17;0.17;;;11.10;99.90;;;;;;4892020;29;20050;-75
2022/10/19 04:58:13;;;;;;;0.20;0.20;;;11.20;99.90;;;;;;4875994;29;20510;-76
2022/10/19 05:00:39;;;;;;;0.10;0.10;;;11.20;99.90;;;;;;4894750;29;20055;-76
2022/10/19 05:03:05;;;;;;;0.20;0.20;;;11.10;99.90;;;;;;4888335;29;20064;-76
2022/10/19 05:05:31;;;;;;;0.20;0.20;;;11.10;99.90;;;;;;4876225;29;20275;-76
2022/10/19 05:07:57;;;;;;;0.20;0.20;;;11.20;99.90;;;;;;4873630;29;20041;-76
2022/10/19 05:10:22;;;;;;;0.20;0.20;;;11.10;99.90;;;;;;4889605;29;20052;-75
2022/10/19 05:12:48;;;;;;;0.10;0.10;;;11.20;99.90;;;;;;4896193;29;20450;-75
2022/10/19 05:15:13;;;;;;;0.17;0.17;;;11.30;99.90;;;;;;4875795;29;20072;-75
2022/10/19 05:17:39;;;;;;;0.15;0.15;;;11.20;99.90;;;;;;4893964;29;20504;-76
2022/10/19 05:20:05;;;;;;;0.20;0.20;;;11.20;99.90;;;;;;4893390;29;20098;-76
2022/10/19 05:22:31;;;;;;;0.20;0.20;;;11.10;99.90;;;;;;4876098;29;20552;-77
2022/10/19 05:24:56;;;;;;;0.20;0.20;;;11.20;99.90;;;;;;4895034;29;20136;-76
2022/10/19 05:27:22;;;;;;;0.10;0.10;;;11.20;99.90;;;;;;4895831;29;20037;-76
2022/10/19 05:29:48;;;;;;;0.10;0.10;;;11.10;99.90;;;;;;4875048;29;20045;-76
2022/10/19 05:32:13;;;;;;;0.10;0.10;;;11.20;99.90;;;;;;4891348;29;20517;-76
2022/10/19 05:34:39;;;;;;;0.20;0.20;;;11.20;99.90;;;;;;4877653;29;20514;-76
2022/10/19 05:37:04;;;;;;;0.10;0.10;;;11.20;99.90;;;;;;4893643;29;20091;-76
2022/10/19 05:39:30;;;;;;;0.20;0.20;;;11.20;99.90;;;;;;4892898;29;20048;-76
2022/10/19 05:41:56;;;;;;;0.10;0.10;;;11.20;99.90;;;;;;4894184;29;20039;-76
2022/10/19 05:44:22;;;;;;;0.10;0.10;;;11.20;99.90;;;;;;4892949;29;20528;-76
2022/10/19 05:46:49;;;;;;;0.10;0.10;;;11.20;99.90;;;;;;4892428;29;20112;-76
2022/10/19 05:49:17;;;;;;;0.10;0.10;;;11.20;99.90;;;;;;4894670;29;20061;-76
2022/10/19 05:51:43;;;;;;;0.17;0.17;;;11.20;99.90;;;;;;4888428;29;20071;-76
2022/10/19 05:54:10;;;;;;;0.20;0.20;;;11.20;99.90;;;;;;4893488;29;20548;-76
2022/10/19 05:56:37;;;;;;;0.10;0.10;;;11.20;99.90;;;;;;4891984;29;20051;-76
2022/10/19 05:59:04;;;;;;;0.17;0.17;;;11.20;99.90;;;;;;4875984;29;20045;-76
2022/10/19 06:01:31;;;;;;;0.10;0.10;;;11.10;99.90;;;;;;4875175;29;20051;-76
2022/10/19 06:03:58;;;;;;;0.20;0.20;;;11.20;99.90;;;;;;4877317;29;20623;-76
2022/10/19 06:06:25;;;;;;;0.20;0.20;;;11.20;99.90;;;;;;4891750;29;20037;-76
2022/10/19 06:08:52;;;;;;;0.20;0.20;;;11.10;99.90;;;;;;4894307;29;20136;-76
2022/10/19 06:11:33;;;;;;;0.20;0.20;;;11.20;99.90;;;;;;4876392;29;20401;-75
2022/10/19 06:14:01;;;;;;;0.20;0.20;;;11.20;99.90;;;;;;4894503;29;20041;-77
2022/10/19 06:16:29;;;;;;;0.20;0.20;;;11.20;99.90;;;;;;4893379;29;20036;-76
2022/10/19 06:18:55;;;;;;;0.15;0.15;;;11.20;99.90;;;;;;4874558;29;20053;-76
2022/10/19 06:21:23;;;;;;;0.10;0.10;;;11.20;99.90;;;;;;4889492;29;20272;-76
2022/10/19 06:23:50;;;;;;;0.20;0.20;;;11.20;99.90;;;;;;4877115;29;20420;-76
2022/10/19 06:26:16;;;;;;;0.10;0.10;;;11.10;99.90;;;;;;4891542;29;20056;-76
2022/10/19 06:28:42;;;;;;;0.20;0.20;;;11.20;99.90;;;;;;4891946;29;20095;-76
2022/10/19 06:31:09;;;;;;;0.10;0.10;;;11.20;99.90;;;;;;4892949;29;20040;-76
2022/10/19 06:33:35;;;;;;;0.10;0.10;;;10.70;99.90;;;;;;4890962;29;20056;-76
2022/10/19 06:36:09;;;;;;;0.20;0.20;;;11.20;99.90;;;;;;4891677;29;20052;-76
2022/10/19 06:38:35;;;;;;;0.20;0.20;;;11.20;99.90;;;;;;4891803;29;20675;-76
2022/10/19 06:41:04;;;;;;;0.10;0.10;;;11.20;99.90;;;;;;4891184;29;20040;-76
2022/10/19 06:43:30;;;;;;;0.20;0.20;;;11.30;99.90;;;;;;4891541;29;20140;-76
2022/10/19 06:45:55;;;;;;;0.20;0.20;;;11.10;99.90;;;;;;4893173;29;20123;-77
2022/10/19 06:48:21;;;;;;;0.10;0.10;;;11.30;99.90;;;;;;4887998;29;20053;-76
2022/10/19 06:50:58;;;;;;;0.15;0.15;;;11.30;99.90;;;;;;4890816;29;20405;-76
2022/10/19 06:53:24;;;;;;;0.20;0.20;;;11.30;99.90;;;;;;4890869;29;20087;-76
2022/10/19 06:55:57;;;;;;;0.10;0.10;;;11.40;99.90;;;;;;4892159;29;20040;-76
2022/10/19 06:58:24;;;;;;;0.10;0.10;;;11.40;99.90;;;;;;4892477;29;20108;-77
2022/10/19 07:00:57;;;;;;;0.20;0.20;;;11.40;99.90;;;;;;4892568;29;20064;-77
2022/10/19 07:03:27;;;;;;;0.15;0.15;;;11.30;99.90;;;;;;4892462;29;20052;-76
2022/10/19 07:05:58;;;;;;;0.10;0.10;;;11.40;99.90;;;;;;4885710;29;20502;-76
2022/10/19 07:08:25;;;;;;;0.17;0.17;;;11.40;99.90;;;;;;4891903;29;20139;-76
2022/10/19 07:10:57;;;;;;;0.10;0.10;;;11.50;99.90;;;;;;4892588;29;20079;-77
2022/10/19 07:13:23;;;;;;;0.10;0.10;;;11.70;99.90;;;;;;4889504;29;20047;-76
2022/10/19 07:15:49;;;;;;;0.10;0.10;;;11.50;99.90;;;;;;4891354;29;20049;-77
2022/10/19 07:18:14;;;;;;;0.17;0.17;;;11.50;99.90;;;;;;4894535;29;20057;-77
2022/10/19 07:20:40;;;;;;;0.20;0.20;;;11.10;99.90;;;;;;4895534;29;20048;-77
2022/10/19 07:23:06;;;;;;;0.17;0.17;;;11.50;99.90;;;;;;4894237;29;20528;-77
2022/10/19 07:25:32;;;;;;;0.20;0.20;;;11.60;99.90;;;;;;4895351;29;20040;-77
2022/10/19 07:28:01;;;;;;;0.20;0.20;;;11.70;99.90;;;;;;4894605;29;20520;-76
2022/10/19 07:30:26;;;;;;;0.20;0.20;;;11.70;99.90;;;;;;4891564;29;20050;-77
2022/10/19 07:32:52;;;;;;;0.15;0.15;;;11.60;99.90;;;;;;4895832;29;20041;-76
2022/10/19 07:35:17;;;;;;;0.20;0.20;;;11.70;99.90;;;;;;4894463;29;20053;-76
2022/10/19 07:37:43;;;;;;;0.20;0.20;;;11.70;99.90;;;;;;4890679;29;20511;-76
2022/10/19 07:40:10;;;;;;;0.20;0.20;;;11.70;99.90;;;;;;4889748;29;20096;-76
2022/10/19 07:42:36;;;;;;;0.20;0.20;;;11.80;99.90;;;;;;4889182;29;20051;-76
2022/10/19 07:45:02;;;;;;;0.20;0.20;;;11.80;99.90;;;;;;4891775;29;20048;-76
2022/10/19 07:47:28;;;;;;;0.20;0.20;;;11.80;99.90;;;;;;4903639;29;20051;-76
2022/10/19 07:49:54;;;;;;;0.17;0.17;;;11.80;99.90;;;;;;4909204;29;20066;-76
2022/10/19 07:52:19;;;;;;;0.20;0.20;;;11.90;99.90;;;;;;4912234;29;20589;-77
2022/10/19 07:54:48;;;;;;;0.20;0.20;;;11.90;99.90;;;;;;4911466;29;20047;-77
2022/10/19 07:57:14;;;;;;;0.20;0.20;;;11.90;99.90;;;;;;4909411;29;20051;-77
2022/10/19 07:59:40;;;;;;;0.17;0.17;;;12.00;99.90;;;;;;4896048;29;20052;-77
2022/10/19 08:02:14;;;;;;;0.20;0.20;;;12.00;99.90;;;;;;4882599;29;20508;-77
2022/10/19 08:04:39;;;;;;;0.17;0.17;;;12.00;99.90;;;;;;4903505;29;20170;-77
2022/10/19 08:07:05;;;;;;;0.20;0.20;;;12.00;99.90;;;;;;4914901;29;20115;-77
2022/10/19 08:09:31;;;;;;;0.20;0.20;;;12.10;99.90;;;;;;4884880;29;20497;-77
2022/10/19 08:11:56;;;;;;;0.10;0.10;;;12.10;99.90;;;;;;4910083;29;20047;-77
2022/10/19 08:14:22;;;;;;;0.10;0.10;;;12.10;99.90;;;;;;4897802;29;20040;-77
2022/10/19 08:16:47;;;;;;;0.10;0.10;;;12.10;99.90;;;;;;4898223;29;20127;-77
2022/10/19 08:19:14;;;;;;;0.20;0.20;;;12.10;99.90;;;;;;4898295;29;20586;-77
2022/10/19 08:21:43;;;;;;;0.20;0.20;;;12.20;99.90;;;;;;4891313;29;20399;-77
2022/10/19 08:24:10;;;;;;;0.20;0.20;;;12.20;99.90;;;;;;4915570;29;20564;-77
2022/10/19 08:26:37;;;;;;;0.10;0.10;;;12.30;99.90;;;;;;4905936;29;20066;-77
2022/10/19 08:29:14;;;;;;;0.20;0.20;;;12.30;99.90;;;;;;4889993;29;20484;-77
2022/10/19 08:31:43;;;;;;;0.20;0.20;;;12.30;99.90;;;;;;4911949;29;20050;-77
2022/10/19 08:34:09;;;;;;;0.10;0.10;;;12.30;99.90;;;;;;4902551;29;20122;-77
2022/10/19 08:36:35;;;;;;;0.20;0.20;;;12.40;99.90;;;;;;4893235;29;20052;-77
2022/10/19 08:39:06;;;;;;;0.20;0.20;;;12.40;99.90;;;;;;4902919;29;20055;-77
2022/10/19 08:41:40;;;;;;;0.10;0.10;;;12.40;99.90;;;;;;4905390;29;20135;-77
2022/10/19 08:44:33;;;;;;;0.17;0.17;;;12.40;99.90;;;;;;4897551;29;20059;-76
2022/10/19 08:47:20;;;;;;;0.10;0.10;;;12.50;99.90;;;;;;4902023;29;20045;-76
2022/10/19 08:49:46;;;;;;;0.20;0.20;;;12.50;99.90;;;;;;4877743;29;20056;-77
2022/10/19 08:52:19;;;;;;;0.20;0.20;;;12.60;99.90;;;;;;4865615;29;20454;-77
2022/10/19 08:54:55;;;;;;;0.10;0.10;;;12.50;99.90;;;;;;4876512;29;20056;-77
2022/10/19 08:57:41;;;;;;;0.10;0.10;;;12.60;99.90;;;;;;4895679;29;20079;-77
2022/10/19 09:00:35;;;;;;;0.10;0.10;;;12.60;99.90;;;;;;4889243;29;20041;-77
2022/10/19 09:03:30;;;;;;;0.20;0.20;;;12.60;99.90;;;;;;4895616;29;20049;-77
2022/10/19 09:06:08;;;;;;;0.10;0.10;;;12.70;99.90;;;;;;4882794;29;20497;-77
2022/10/19 09:08:38;;;;;;;0.10;0.10;;;12.70;99.90;;;;;;4866742;29;20064;-77
2022/10/19 09:11:08;;;;;;;0.20;0.20;;;12.80;99.90;;;;;;4878422;29;20044;-77
2022/10/19 09:13:44;;;;;;;0.10;0.10;;;12.80;99.90;;;;;;4892405;29;20264;-77
2022/10/19 09:16:13;;;;;;;0.20;0.20;;;12.80;99.90;;;;;;4865229;29;20500;-77
2022/10/19 09:18:39;;;;;;;0.10;0.10;;;12.80;99.90;;;;;;4860455;29;20044;-77
2022/10/19 09:21:14;;;;;;;0.20;0.20;;;12.80;99.90;;;;;;4886753;29;20072;-77
2022/10/19 09:24:02;;;;;;;0.10;0.10;;;12.90;99.90;;;;;;4886138;29;20477;-77
2022/10/19 09:26:31;;;;;;;0.20;0.20;;;12.80;99.90;;;;;;4860696;29;20131;-77
2022/10/19 09:29:05;;;;;;;0.20;0.20;;;12.90;99.90;;;;;;4860777;29;20057;-77
2022/10/19 09:31:36;;;;;;;0.10;0.10;;;12.90;99.90;;;;;;4893683;29;20068;-77
2022/10/19 09:34:07;;;;;;;0.13;0.13;;;12.90;99.90;;;;;;4886421;29;20056;-77
2022/10/19 09:36:40;;;;;;;0.20;0.20;;;12.90;99.90;;;;;;4873441;29;20405;-77
2022/10/19 09:39:08;;;;;;;0.20;0.20;;;12.90;99.90;;;;;;4874463;29;20500;-77
2022/10/19 09:41:34;;;;;;;0.20;0.20;;;13.00;99.90;;;;;;4883750;29;20048;-77
2022/10/19 09:44:00;;;;;;;0.13;0.13;;;13.00;99.90;;;;;;4863975;29;20128;-77
2022/10/19 09:46:38;;;;;;;0.10;0.10;;;13.00;99.90;;;;;;4868677;29;20144;-77
2022/10/19 09:49:04;;;;;;;0.10;0.10;;;13.00;99.90;;;;;;4894733;29;20404;-77
2022/10/19 09:51:51;;;;;;;0.10;0.10;;;13.10;99.90;;;;;;4893051;29;20131;-77
2022/10/19 09:54:26;;;;;;;0.10;0.10;;;13.10;99.90;;;;;;4878602;29;20049;-77
2022/10/19 09:56:54;;;;;;;0.10;0.10;;;13.10;99.90;;;;;;4888392;29;20043;-77
2022/10/19 09:59:27;;;;;;;0.10;0.10;;;13.10;99.90;;;;;;4877046;29;20057;-77
2022/10/19 10:02:04;;;;;;;0.10;0.10;;;13.10;99.90;;;;;;4860558;29;20045;-77
2022/10/19 10:04:30;;;;;;;0.10;0.10;;;13.10;99.90;;;;;;4875007;29;20052;-77
2022/10/19 10:06:57;;;;;;;0.20;0.20;;;13.20;99.90;;;;;;4883052;29;20100;-77
2022/10/19 10:09:26;;;;;;;0.10;0.10;;;13.20;99.90;;;;;;4880424;29;20041;-77
2022/10/19 10:11:55;;;;;;;0.20;0.20;;;13.20;99.90;;;;;;4865777;29;20048;-78
2022/10/19 10:14:28;;;;;;;0.10;0.10;;;13.20;99.90;;;;;;4886879;29;20053;-77
2022/10/19 10:17:04;;;;;;;0.15;0.15;;;13.20;99.90;;;;;;4882295;29;20049;-77
2022/10/19 10:19:32;;;;;;;0.10;0.10;;;13.20;99.90;;;;;;4868928;29;20057;-78
2022/10/19 10:21:59;;;;;;;0.10;0.10;;;13.20;99.90;;;;;;4876527;29;20490;-78
2022/10/19 10:24:30;;;;;;;0.10;0.10;;;13.30;99.90;;;;;;4889480;29;20045;-77
2022/10/19 10:26:58;;;;;;;0.20;0.20;;;13.30;99.90;;;;;;4885967;29;20050;-78
2022/10/19 10:29:29;;;;;;;0.20;0.20;;;13.30;99.90;;;;;;4858926;29;20164;-77
2022/10/19 10:32:00;;;;;;;0.10;0.10;;;13.30;99.90;;;;;;4872878;29;20055;-78
2022/10/19 10:34:34;;;;;;;0.20;0.20;;;13.30;99.90;;;;;;4869945;29;20109;-78
2022/10/19 10:37:01;;;;;;;0.10;0.10;;;13.30;99.90;;;;;;4894114;29;20055;-78
2022/10/19 10:39:29;;;;;;;0.15;0.15;;;13.40;99.90;;;;;;4876033;29;20053;-78
2022/10/19 10:41:59;;;;;;;0.10;0.10;;;13.40;99.90;;;;;;4859409;29;20076;-78
2022/10/19 10:44:30;;;;;;;0.10;0.10;;;13.40;99.90;;;;;;4863002;29;20867;-78
2022/10/19 10:47:00;;;;;;;0.20;0.20;;;13.50;99.90;;;;;;4863784;29;20052;-78
2022/10/19 10:49:34;;;;;;;0.20;0.20;;;13.50;99.90;;;;;;4908033;29;20408;-77
2022/10/19 10:52:05;;;;;;;0.20;0.20;;;13.60;99.90;;;;;;4892158;29;20698;-78
2022/10/19 10:54:31;;;;;;;0.13;0.13;;;13.60;99.90;;;;;;4881566;29;20060;-78
2022/10/19 10:57:11;;;;;;;0.10;0.10;;;13.80;99.90;;;;;;4888894;29;20051;-77
2022/10/19 11:00:01;;;;;;;0.20;0.20;;;13.80;99.90;;;;;;4899790;29;20180;-78
2022/10/19 11:02:40;;;;;;;0.10;0.10;;;13.80;99.90;;;;;;4916104;29;20186;-77
2022/10/19 11:05:17;;;;;;;0.15;0.15;;;13.80;99.90;;;;;;4915385;29;20044;-78
2022/10/19 11:07:46;;;;;;;0.10;0.10;;;13.80;99.90;;;;;;4914542;29;20056;-77
2022/10/19 11:11:01;;;;;;;0.20;0.20;;;13.80;99.90;;;;;;4894760;29;20496;-77
2022/10/19 11:13:32;;;;;;;0.10;0.10;;;13.90;99.90;;;;;;4856017;29;20505;-77
2022/10/19 11:16:15;;;;;;;0.10;0.10;;;13.90;99.90;;;;;;4897373;29;20049;-77
2022/10/19 11:18:46;;;;;;;0.20;0.20;;;13.90;99.90;;;;;;4898937;29;20086;-77
2022/10/19 11:21:36;;;;;;;0.20;0.20;;;14.10;99.90;;;;;;4898414;29;20042;-77
2022/10/19 11:24:11;;;;;;;0.10;0.10;;;13.80;99.90;;;;;;4917280;29;20047;-77
2022/10/19 11:27:01;;;;;;;0.20;0.20;;;14.10;99.90;;;;;;4904210;29;20047;-77
2022/10/19 11:29:59;;;;;;;0.10;0.10;;;14.10;99.90;;;;;;4885604;29;20056;-76
2022/10/19 11:32:43;;;;;;;0.10;0.10;;;14.10;99.90;;;;;;4905791;29;20063;-76
2022/10/19 11:35:23;;;;;;;0.10;0.10;;;14.10;99.90;;;;;;4914678;29;20040;-77
2022/10/19 11:37:59;;;;;;;0.10;0.10;;;14.10;99.90;;;;;;4899299;29;20164;-76
2022/10/19 11:40:39;;;;;;;0.10;0.10;;;14.10;99.90;;;;;;4881723;29;20127;-76
2022/10/19 11:43:10;;;;;;;0.20;0.20;;;14.10;99.90;;;;;;4897150;29;20041;-76
2022/10/19 11:45:49;;;;;;;0.20;0.20;;;14.10;99.90;;;;;;4883354;29;20111;-77
2022/10/19 11:48:42;;;;;;;0.15;0.15;;;14.20;99.90;;;;;;4915342;29;20159;-77
2022/10/19 11:51:31;;;;;;;0.10;0.10;;;14.10;99.90;;;;;;4906286;29;20044;-76
2022/10/19 11:54:12;;;;;;;0.20;0.20;;;14.20;99.90;;;;;;4898671;29;20048;-77
2022/10/19 11:56:49;;;;;;;0.10;0.10;;;14.30;99.90;;;;;;4882117;29;20041;-77
2022/10/19 11:59:33;;;;;;;0.20;0.20;;;14.40;99.90;;;;;;4895902;29;20048;-77
2022/10/19 12:02:23;;;;;;;0.10;0.10;;;14.50;99.90;;;;;;4880403;29;20436;-76
2022/10/19 12:04:56;;;;;;;0.10;0.10;;;14.60;99.90;;;;;;4895916;29;20462;-76
2022/10/19 12:07:33;;;;;;;0.20;0.20;;;14.70;99.90;;;;;;4898373;29;20072;-76
2022/10/19 12:10:36;;;;;;;0.20;0.20;;;14.70;99.90;;;;;;4899726;29;20083;-77
2022/10/19 12:13:04;;;;;;;0.10;0.10;;;14.70;99.90;;;;;;4887922;29;20056;-76
2022/10/19 12:15:45;;;;;;;0.10;0.10;;;14.80;99.90;;;;;;4894521;29;20428;-77
2022/10/19 12:18:29;;;;;;;0.10;0.10;;;14.90;99.90;;;;;;4912892;29;20086;-77
2022/10/19 12:20:59;;;;;;;0.10;0.10;;;15.00;99.90;;;;;;4887589;29;20080;-77
2022/10/19 12:23:34;;;;;;;0.20;0.20;;;15.20;99.90;;;;;;4881996;29;20060;-77
2022/10/19 12:26:03;;;;;;;0.20;0.20;;;15.50;99.90;;;;;;4888768;29;20039;-77
2022/10/19 12:28:31;;;;;;;0.20;0.20;;;16.00;99.90;;;;;;4914497;29;20051;-77
2022/10/19 12:31:00;;;;;;;0.10;0.10;;;16.10;99.90;;;;;;4906275;29;20079;-77
2022/10/19 12:33:47;;;;;;;0.10;0.10;;;16.10;99.90;;;;;;4907429;29;20443;-76
2022/10/19 12:36:31;;;;;;;0.10;0.10;;;16.00;99.90;;;;;;4904780;29;20056;-77
2022/10/19 12:39:38;;;;;;;0.25;0.25;;;15.90;99.90;;;;;;4895952;29;20432;-77
2022/10/19 12:42:27;;;;;;;0.20;0.20;;;15.80;99.90;;;;;;4884655;29;20051;-77
2022/10/19 12:45:35;;;;;;;0.15;0.15;;;16.00;99.90;;;;;;4897418;29;20518;-76
2022/10/19 12:48:10;;;;;;;0.20;0.20;;;17.50;99.90;;;;;;4894013;29;20056;-77
2022/10/19 12:50:47;;;;;;;0.10;0.10;;;18.30;99.90;;;;;;4893910;29;20273;-77
2022/10/19 12:53:39;;;;;;;0.20;0.20;;;20.30;99.90;;;;;;4893864;29;20540;-77
2022/10/19 12:56:08;;;;;;;0.20;0.20;;;21.60;99.90;;;;;;4877180;29;20128;-77
2022/10/19 12:58:43;;;;;;;0.20;0.20;;;;;;;;;;4875659;29;20053;-77
2022/10/19 13:01:19;;;;;;;0.20;0.20;;;;;;;;;;4881341;29;20443;-78
2022/10/19 13:03:46;;;;;;;0.20;0.20;;;;;;;;;;4880024;29;20113;-77
2022/10/19 13:06:14;;;;;;;0.10;0.10;;;;;;;;;;4882627;29;20060;-77
2022/10/19 13:09:01;;;;;;;0.20;0.20;;;;;;;;;;4893529;29;20040;-78